Aviation Digital Data Service (ADDS)

Output produced by METARs form (0630 UTC 19 February 2019)
found at http://www.aviationweather.gov/metar/data/
 
Forecast for: HEAX (ALEXANDRIA/NOUZH, EG)
Text: TAF HEAX 190500Z 1906/2012 31008KT 9999 SCT020
Forecast period: 0600 UTC 19 February 2019 to 1200 UTC 20 February 2019
Forecast type: FROM: standard forecast or significant change
Winds: from the NW (310 degrees) at 9 MPH (8 knots; 4.1 m/s)
Visibility: 6 or more miles 10+ km)
Ceiling: at least 12,000 feet AGL
Clouds: scattered clouds at 2000 feet AGL
Weather: no significant weather forecast for this period
Text: TEMPO 1906/1912 7000 -RA BKN020
Forecast period: 0600 to 1200 UTC 19 February 2019
Forecast type: TEMPORARY: The following changes expected for less than half the time period
Visibility: 4 miles (7 km)
Ceiling: 2000 feet AGL
Clouds: broken clouds at 2000 feet AGL
Weather: -RA  (light rain)